Calvin, Illinois
Current Conditions -  °F | °C
As of 10:15 PM on Tuesday 27 Jan 2015 (Local Time) from KCUL Reporting Station
Broken Clouds Broken Clouds  
Wind Chill: 29°   Ceiling: 1800
Heat Index: 33°   Visibility: 10mi
Dew Point: 31°   Wind: 5mph
Humidity: 94%   Direction: 360°N
Pressure: 30.27"   Gusts: NA
Location:  38.1681°N, 88.0517°W
Report Text: KCUL 280415Z AUTO 36004KT 10SM BKN018 01/00 A3027 RMK AO2 T00051003
Loading
Personal Weather Stations






























Interactive Weather Map New forecast layout! Learn more

10-Day Weather Forecast

Advertisements
Track Severe Weather on mobile